createdAt,value
2023-02-28T00:00:56.865Z,0.00
2023-02-28T00:01:56.877Z,0.00
2023-02-28T00:02:56.880Z,0.00
2023-02-28T00:03:56.834Z,0.00
2023-02-28T00:04:56.826Z,0.00
2023-02-28T00:05:56.819Z,0.00
2023-02-28T00:06:56.803Z,0.00
2023-02-28T00:07:56.785Z,0.00
2023-02-28T00:08:56.785Z,0.00
2023-02-28T00:09:56.772Z,0.00
2023-02-28T00:10:56.752Z,0.00
2023-02-28T00:11:56.766Z,0.00
2023-02-28T00:12:56.751Z,0.00
2023-02-28T00:13:56.751Z,0.00
2023-02-28T00:14:56.712Z,0.00
2023-02-28T00:15:56.699Z,0.00
2023-02-28T00:16:56.712Z,0.00
2023-02-28T00:17:56.694Z,0.00
2023-02-28T00:18:56.667Z,0.00
2023-02-28T00:19:56.660Z,0.00
2023-02-28T00:20:56.642Z,0.00
2023-02-28T00:21:56.636Z,0.00
2023-02-28T00:22:56.620Z,0.00
2023-02-28T00:23:56.611Z,0.00
2023-02-28T00:24:56.602Z,0.00
2023-02-28T00:25:56.587Z,0.00
2023-02-28T00:26:56.578Z,0.00
2023-02-28T00:27:56.592Z,0.00
2023-02-28T00:28:56.586Z,0.00
2023-02-28T00:29:56.555Z,0.00
2023-02-28T00:30:56.607Z,0.00
2023-02-28T00:31:56.550Z,0.00
2023-02-28T00:32:56.506Z,0.00
2023-02-28T00:33:56.506Z,0.00
2023-02-28T00:34:56.480Z,0.00
2023-02-28T00:35:56.487Z,0.00
2023-02-28T00:36:56.458Z,0.00
2023-02-28T00:37:56.452Z,0.00
2023-02-28T00:38:56.461Z,0.00
2023-02-28T00:39:56.427Z,0.00
2023-02-28T00:40:56.414Z,0.00
2023-02-28T00:41:56.409Z,0.00
2023-02-28T00:42:56.392Z,0.00
2023-02-28T00:43:56.411Z,0.00
2023-02-28T00:44:56.369Z,0.00
2023-02-28T00:45:56.417Z,0.00
2023-02-28T00:46:56.346Z,0.00
2023-02-28T00:47:56.335Z,0.00
2023-02-28T00:48:56.324Z,0.00
2023-02-28T00:49:56.315Z,0.00
2023-02-28T00:50:56.301Z,0.00
2023-02-28T00:51:56.293Z,0.00
2023-02-28T00:52:56.284Z,0.00
2023-02-28T00:53:56.274Z,0.00
2023-02-28T00:54:56.262Z,0.00
2023-02-28T00:55:56.251Z,0.00
2023-02-28T00:56:56.237Z,0.00
2023-02-28T00:57:56.228Z,0.00
2023-02-28T00:58:56.217Z,0.00
2023-02-28T00:59:56.227Z,0.00
2023-02-28T01:00:56.188Z,0.00
2023-02-28T01:01:56.221Z,0.00
2023-02-28T01:02:56.169Z,0.00
2023-02-28T01:03:56.156Z,0.00
2023-02-28T01:04:56.146Z,0.00
2023-02-28T01:05:56.137Z,0.00
2023-02-28T01:06:56.124Z,0.00
2023-02-28T01:07:56.116Z,0.00
2023-02-28T01:08:56.105Z,0.00
2023-02-28T01:09:56.100Z,0.00
2023-02-28T01:10:56.097Z,0.00
2023-02-28T01:11:56.073Z,0.00
2023-02-28T01:12:56.060Z,0.00
2023-02-28T01:13:56.052Z,0.00
2023-02-28T01:14:56.037Z,0.00
2023-02-28T01:15:56.113Z,0.00
2023-02-28T01:16:56.018Z,0.00
2023-02-28T01:17:56.007Z,0.00
2023-02-28T01:18:55.995Z,0.00
2023-02-28T01:19:55.983Z,0.00
2023-02-28T01:20:55.976Z,0.00
2023-02-28T01:21:55.965Z,0.00
2023-02-28T01:22:55.953Z,0.00
2023-02-28T01:23:55.940Z,0.00
2023-02-28T01:24:55.928Z,0.00
2023-02-28T01:25:55.919Z,0.00
2023-02-28T01:26:55.907Z,0.00
2023-02-28T01:27:55.894Z,0.00
2023-02-28T01:28:55.885Z,0.00
2023-02-28T01:29:55.870Z,0.00
2023-02-28T01:30:55.921Z,0.00
2023-02-28T01:31:55.948Z,0.00
2023-02-28T01:32:55.850Z,0.00
2023-02-28T01:33:55.825Z,0.00
2023-02-28T01:34:55.813Z,0.00
2023-02-28T01:35:55.832Z,0.00
2023-02-28T01:36:55.794Z,0.00
2023-02-28T01:37:55.778Z,0.00
2023-02-28T01:38:55.773Z,0.00
2023-02-28T01:39:55.756Z,0.00
2023-02-28T01:40:55.756Z,0.00
2023-02-28T01:41:55.731Z,0.00
2023-02-28T01:42:55.719Z,0.00
2023-02-28T01:43:55.714Z,0.00
2023-02-28T01:44:55.697Z,0.00
2023-02-28T01:45:55.693Z,0.00
2023-02-28T01:46:55.676Z,0.00
2023-02-28T01:47:55.760Z,0.00
2023-02-28T01:48:55.651Z,0.00
2023-02-28T01:49:55.650Z,0.00
2023-02-28T01:50:55.648Z,0.00
2023-02-28T01:51:55.636Z,0.00
2023-02-28T01:52:55.608Z,0.00
2023-02-28T01:53:55.596Z,0.00
2023-02-28T01:54:55.584Z,0.00
2023-02-28T01:55:55.574Z,0.00
2023-02-28T01:56:55.562Z,0.00
2023-02-28T01:57:55.556Z,0.00
2023-02-28T01:58:55.539Z,0.00
2023-02-28T01:59:55.528Z,0.00
2023-02-28T02:00:55.523Z,0.00
2023-02-28T02:01:55.590Z,0.00
2023-02-28T02:02:55.607Z,0.00
2023-02-28T02:03:55.568Z,0.00
2023-02-28T02:04:55.483Z,0.00
2023-02-28T02:05:55.463Z,0.00
2023-02-28T02:06:55.453Z,0.00
2023-02-28T02:07:55.440Z,0.00
2023-02-28T02:08:55.426Z,0.00
2023-02-28T02:09:55.415Z,0.00
2023-02-28T02:10:55.402Z,0.00
2023-02-28T02:11:55.395Z,0.00
2023-02-28T02:12:55.379Z,0.00
2023-02-28T02:13:55.369Z,0.00
2023-02-28T02:14:55.359Z,0.00
2023-02-28T02:15:55.369Z,0.00
2023-02-28T02:16:55.333Z,0.00
2023-02-28T02:17:55.333Z,0.00
2023-02-28T02:18:55.309Z,0.00
2023-02-28T02:19:55.368Z,0.00
2023-02-28T02:20:55.286Z,0.00
2023-02-28T02:21:55.305Z,0.00
2023-02-28T02:22:55.269Z,0.00
2023-02-28T02:23:55.258Z,0.00
2023-02-28T02:24:55.243Z,0.00
2023-02-28T02:25:55.232Z,0.00
2023-02-28T02:26:55.220Z,0.00
2023-02-28T02:27:55.209Z,0.00
2023-02-28T02:28:55.198Z,0.00
2023-02-28T02:29:55.185Z,0.00
2023-02-28T02:30:55.178Z,0.00
2023-02-28T02:31:55.237Z,0.00
2023-02-28T02:32:55.158Z,0.00
2023-02-28T02:33:55.138Z,0.00
2023-02-28T02:34:55.133Z,0.00
2023-02-28T02:35:55.177Z,0.00
2023-02-28T02:36:55.111Z,0.00
2023-02-28T02:37:55.092Z,0.00
2023-02-28T02:38:55.088Z,0.00
2023-02-28T02:39:55.069Z,0.00
2023-02-28T02:40:55.062Z,0.00
2023-02-28T02:41:55.053Z,0.00
2023-02-28T02:42:55.042Z,0.00
2023-02-28T02:43:55.025Z,0.00
2023-02-28T02:44:55.060Z,0.00
2023-02-28T02:45:55.004Z,0.00
2023-02-28T02:46:55.108Z,0.00
2023-02-28T02:47:54.979Z,0.00
2023-02-28T02:48:54.972Z,0.00
2023-02-28T02:49:54.956Z,0.00
2023-02-28T02:50:54.948Z,0.00
2023-02-28T02:51:54.961Z,0.00
2023-02-28T02:52:54.925Z,0.00
2023-02-28T02:53:54.912Z,0.00
2023-02-28T02:54:56.624Z,0.00
2023-02-28T02:55:54.889Z,0.00
2023-02-28T02:56:54.881Z,0.00
2023-02-28T02:57:54.865Z,0.00
2023-02-28T02:58:54.856Z,0.00
2023-02-28T02:59:54.845Z,0.00
2023-02-28T03:00:54.873Z,0.00
2023-02-28T03:01:54.821Z,0.00
2023-02-28T03:02:54.811Z,0.00
2023-02-28T03:03:54.887Z,0.00
2023-02-28T03:04:54.790Z,0.00
2023-02-28T03:05:54.775Z,0.00
2023-02-28T03:06:54.765Z,0.00
2023-02-28T03:07:54.778Z,0.00
2023-02-28T03:08:54.743Z,0.00
2023-02-28T03:09:54.752Z,0.00
2023-02-28T03:10:54.720Z,0.00
2023-02-28T03:11:54.708Z,0.00
2023-02-28T03:12:54.698Z,0.00
2023-02-28T03:13:54.686Z,0.00
2023-02-28T03:14:54.677Z,0.00
2023-02-28T03:15:54.791Z,0.00
2023-02-28T03:16:54.658Z,0.00
2023-02-28T03:17:54.644Z,0.00
2023-02-28T03:18:54.636Z,0.00
2023-02-28T03:19:54.627Z,0.00
2023-02-28T03:20:54.630Z,0.00
2023-02-28T03:21:54.603Z,0.00
2023-02-28T03:22:54.598Z,0.00
2023-02-28T03:23:54.606Z,0.00
2023-02-28T03:24:54.574Z,0.00
2023-02-28T03:25:54.563Z,0.00
2023-02-28T03:26:54.552Z,0.00
2023-02-28T03:27:54.538Z,0.00
2023-02-28T03:28:54.535Z,0.00
2023-02-28T03:29:54.519Z,0.00
2023-02-28T03:30:54.509Z,0.00
2023-02-28T03:31:54.586Z,0.00
2023-02-28T03:32:54.488Z,0.00
2023-02-28T03:33:54.475Z,0.00
2023-02-28T03:34:54.467Z,0.00
2023-02-28T03:35:54.549Z,0.00
2023-02-28T03:36:54.471Z,0.00
2023-02-28T03:37:54.433Z,0.00
2023-02-28T03:38:54.425Z,0.00
2023-02-28T03:39:54.441Z,0.00
2023-02-28T03:40:54.406Z,0.00
2023-02-28T03:41:54.401Z,0.00
2023-02-28T03:42:54.382Z,0.00
2023-02-28T03:43:54.373Z,0.00
2023-02-28T03:44:54.360Z,0.00
2023-02-28T03:45:54.452Z,0.00
2023-02-28T03:46:54.341Z,0.00
2023-02-28T03:47:54.330Z,0.00
2023-02-28T03:48:54.320Z,0.00
2023-02-28T03:49:54.309Z,0.00
2023-02-28T03:50:54.299Z,0.00
2023-02-28T03:51:54.288Z,0.00
2023-02-28T03:52:54.277Z,0.00
2023-02-28T03:53:54.279Z,0.00
2023-02-28T03:54:54.258Z,0.00
2023-02-28T03:55:54.269Z,0.00
2023-02-28T03:56:54.240Z,0.00
2023-02-28T03:57:54.230Z,0.00
2023-02-28T03:58:54.217Z,0.00
2023-02-28T03:59:54.206Z,0.00
2023-02-28T04:00:54.199Z,0.00
2023-02-28T04:01:54.230Z,0.00
2023-02-28T04:02:54.169Z,0.00
2023-02-28T04:03:54.157Z,0.00
2023-02-28T04:04:54.154Z,0.00
2023-02-28T04:05:54.178Z,0.00
2023-02-28T04:06:54.126Z,0.00
2023-02-28T04:07:54.119Z,0.00
2023-02-28T04:08:54.109Z,0.00
2023-02-28T04:09:54.104Z,0.00
2023-02-28T04:10:54.086Z,0.00
2023-02-28T04:11:54.107Z,0.00
2023-02-28T04:12:54.064Z,0.00
2023-02-28T04:13:54.054Z,0.00
2023-02-28T04:14:54.042Z,0.00
2023-02-28T04:15:54.104Z,0.00
2023-02-28T04:16:54.021Z,0.00
2023-02-28T04:17:54.009Z,0.00
2023-02-28T04:18:54.005Z,0.00
2023-02-28T04:19:53.990Z,0.00
2023-02-28T04:20:53.988Z,0.00
2023-02-28T04:21:53.984Z,0.00
2023-02-28T04:22:53.956Z,0.00
2023-02-28T04:23:53.956Z,0.00
2023-02-28T04:24:53.942Z,0.00
2023-02-28T04:25:53.927Z,0.00
2023-02-28T04:26:53.922Z,0.00
2023-02-28T04:27:53.928Z,0.00
2023-02-28T04:28:53.895Z,0.00
2023-02-28T04:29:53.887Z,0.00
2023-02-28T04:30:53.877Z,0.00
2023-02-28T04:31:53.968Z,0.00
2023-02-28T04:32:53.851Z,0.00
2023-02-28T04:33:53.844Z,0.00
2023-02-28T04:34:53.864Z,0.00
2023-02-28T04:35:53.884Z,0.00
2023-02-28T04:37:10.064Z,0.00
2023-02-28T04:37:54.827Z,0.00
2023-02-28T04:38:53.788Z,0.00
2023-02-28T04:39:53.787Z,0.00
2023-02-28T04:40:53.767Z,0.00
2023-02-28T04:41:53.755Z,0.00
2023-02-28T04:42:53.746Z,0.00
2023-02-28T04:43:53.761Z,0.00
2023-02-28T04:44:53.725Z,0.00
2023-02-28T04:45:53.931Z,0.00
2023-02-28T04:46:53.702Z,0.00
2023-02-28T04:47:53.690Z,0.00
2023-02-28T04:48:53.677Z,0.00
2023-02-28T04:49:53.685Z,0.00
2023-02-28T04:50:53.735Z,0.00
2023-02-28T04:51:53.650Z,0.00
2023-02-28T04:52:53.696Z,0.00
2023-02-28T04:53:53.622Z,0.00
2023-02-28T04:54:53.614Z,0.00
2023-02-28T04:55:53.602Z,0.00
2023-02-28T04:56:53.592Z,0.00
2023-02-28T04:57:53.578Z,0.00
2023-02-28T04:58:53.574Z,0.00
2023-02-28T04:59:53.582Z,0.00
2023-02-28T05:00:53.548Z,0.00
2023-02-28T05:01:53.623Z,0.00
2023-02-28T05:02:53.528Z,0.00
2023-02-28T05:03:53.567Z,0.00
2023-02-28T05:04:53.560Z,0.00
2023-02-28T05:05:53.492Z,0.00
2023-02-28T05:06:53.485Z,0.00
2023-02-28T05:07:53.471Z,0.00
2023-02-28T05:08:53.468Z,0.00
2023-02-28T05:09:53.450Z,0.00
2023-02-28T05:10:53.444Z,0.00
2023-02-28T05:11:53.426Z,0.00
2023-02-28T05:12:53.439Z,0.00
2023-02-28T05:13:53.406Z,0.00
2023-02-28T05:14:53.399Z,0.00
2023-02-28T05:15:53.573Z,0.00
2023-02-28T05:16:53.378Z,0.00
2023-02-28T05:17:53.387Z,0.00
2023-02-28T05:18:53.405Z,0.00
2023-02-28T05:19:54.579Z,0.00
2023-02-28T05:20:53.333Z,0.00
2023-02-28T05:21:53.329Z,0.00
2023-02-28T05:22:53.313Z,0.00
2023-02-28T05:23:53.307Z,0.00
2023-02-28T05:24:53.298Z,0.00
2023-02-28T05:25:53.280Z,0.00
2023-02-28T05:26:53.273Z,0.00
2023-02-28T05:27:53.261Z,0.00
2023-02-28T05:28:53.249Z,0.00
2023-02-28T05:29:53.234Z,0.00
2023-02-28T05:30:53.228Z,0.00
2023-02-28T05:31:53.428Z,0.00
2023-02-28T05:32:53.202Z,0.00
2023-02-28T05:33:53.194Z,0.00
2023-02-28T05:34:53.184Z,0.00
2023-02-28T05:35:53.263Z,0.00
2023-02-28T05:36:53.164Z,0.00
2023-02-28T05:37:53.151Z,0.00
2023-02-28T05:38:53.148Z,0.00
2023-02-28T05:39:53.133Z,0.00
2023-02-28T05:40:53.124Z,0.00
2023-02-28T05:41:53.106Z,0.00
2023-02-28T05:42:53.095Z,0.00
2023-02-28T05:43:53.086Z,0.00
2023-02-28T05:44:53.080Z,0.00
2023-02-28T05:45:53.126Z,0.00
2023-02-28T05:46:53.056Z,0.00
2023-02-28T05:47:53.071Z,0.00
2023-02-28T05:48:53.109Z,0.00
2023-02-28T05:49:53.027Z,0.00
2023-02-28T05:50:53.021Z,0.00
2023-02-28T05:51:53.004Z,0.00
2023-02-28T05:52:53.010Z,0.00
2023-02-28T05:53:52.978Z,0.00
2023-02-28T05:54:52.970Z,0.00
2023-02-28T05:55:52.961Z,0.00
2023-02-28T05:56:52.958Z,0.00
2023-02-28T05:57:52.976Z,0.00
2023-02-28T05:58:52.930Z,0.00
2023-02-28T05:59:53.214Z,0.00
2023-02-28T06:00:52.901Z,0.00
2023-02-28T06:01:52.889Z,0.00
2023-02-28T06:02:52.913Z,0.00
2023-02-28T06:03:52.968Z,0.00
2023-02-28T06:04:52.886Z,0.00
2023-02-28T06:05:52.849Z,0.00
2023-02-28T06:06:52.877Z,0.00
2023-02-28T06:07:52.976Z,0.00
2023-02-28T06:08:52.894Z,0.00
2023-02-28T06:09:52.881Z,0.00
2023-02-28T06:10:52.890Z,0.00
2023-02-28T06:11:52.994Z,0.00
2023-02-28T06:12:52.947Z,0.00
2023-02-28T06:14:52.754Z,5.62
2023-02-28T06:15:52.742Z,5.62
2023-02-28T06:16:52.838Z,5.62
2023-02-28T06:17:52.727Z,5.62
2023-02-28T06:18:52.711Z,5.62
2023-02-28T06:19:52.768Z,5.62
2023-02-28T06:20:52.693Z,5.62
2023-02-28T06:21:52.677Z,5.62
2023-02-28T06:22:52.671Z,5.62
2023-02-28T06:23:52.662Z,11.25
2023-02-28T06:24:52.645Z,11.25
2023-02-28T06:25:52.635Z,11.25
2023-02-28T06:26:58.638Z,11.25
2023-02-28T06:27:52.611Z,11.25
2023-02-28T06:28:52.601Z,11.25
2023-02-28T06:29:52.589Z,11.25
2023-02-28T06:30:52.605Z,11.25
2023-02-28T06:31:52.603Z,16.88
2023-02-28T06:32:52.565Z,16.88
2023-02-28T06:33:52.547Z,16.88
2023-02-28T06:34:52.539Z,16.88
2023-02-28T06:35:52.617Z,16.88
2023-02-28T06:36:52.537Z,22.50
2023-02-28T06:37:52.503Z,22.50
2023-02-28T06:38:52.504Z,22.50
2023-02-28T06:39:52.481Z,28.12
2023-02-28T06:40:52.473Z,28.12
2023-02-28T06:41:55.773Z,28.12
2023-02-28T06:42:52.450Z,28.12
2023-02-28T06:43:52.441Z,33.75
2023-02-28T06:44:52.429Z,39.38
2023-02-28T06:45:52.455Z,39.38
2023-02-28T06:46:52.406Z,45.00
2023-02-28T06:47:52.399Z,39.38
2023-02-28T06:48:52.403Z,39.38
2023-02-28T06:49:52.377Z,39.38
2023-02-28T06:50:52.363Z,39.38
2023-02-28T06:51:52.389Z,39.38
2023-02-28T06:52:52.634Z,39.38
2023-02-28T06:53:52.354Z,39.38
2023-02-28T06:54:52.320Z,45.00
2023-02-28T06:55:52.310Z,45.00
2023-02-28T06:56:52.296Z,45.00
2023-02-28T06:57:52.290Z,45.00
2023-02-28T06:58:52.308Z,56.25
2023-02-28T06:59:52.268Z,61.88
2023-02-28T07:00:52.253Z,73.12
2023-02-28T07:01:52.284Z,84.38
2023-02-28T07:02:52.235Z,84.38
2023-02-28T07:03:52.226Z,84.38
2023-02-28T07:04:52.236Z,90.00
2023-02-28T07:05:52.196Z,84.38
2023-02-28T07:06:52.195Z,73.12
2023-02-28T07:07:52.206Z,67.50
2023-02-28T07:08:52.164Z,67.50
2023-02-28T07:09:52.153Z,56.25
2023-02-28T07:10:52.140Z,67.50
2023-02-28T07:11:52.138Z,73.12
2023-02-28T07:12:52.122Z,67.50
2023-02-28T07:13:52.148Z,56.25
2023-02-28T07:14:52.098Z,50.62
2023-02-28T07:15:52.131Z,50.62
2023-02-28T07:16:52.075Z,56.25
2023-02-28T07:17:52.069Z,61.88
2023-02-28T07:18:52.055Z,61.88
2023-02-28T07:19:52.047Z,56.25
2023-02-28T07:20:52.039Z,50.62
2023-02-28T07:21:52.025Z,50.62
2023-02-28T07:22:52.008Z,50.62
2023-02-28T07:23:52.031Z,50.62
2023-02-28T07:24:51.990Z,50.62
2023-02-28T07:25:51.987Z,56.25
2023-02-28T07:26:52.009Z,50.62
2023-02-28T07:27:51.959Z,50.62
2023-02-28T07:28:51.956Z,50.62
2023-02-28T07:29:51.935Z,56.25
2023-02-28T07:30:52.000Z,56.25
2023-02-28T07:31:51.943Z,56.25
2023-02-28T07:32:51.903Z,56.25
2023-02-28T07:33:51.890Z,56.25
2023-02-28T07:34:51.881Z,56.25
2023-02-28T07:35:51.991Z,56.25
2023-02-28T07:36:51.864Z,56.25
2023-02-28T07:37:51.848Z,56.25
2023-02-28T07:38:51.881Z,56.25
2023-02-28T07:39:51.852Z,61.88
2023-02-28T07:40:51.819Z,61.88
2023-02-28T07:41:51.808Z,67.50
2023-02-28T07:42:51.810Z,61.88
2023-02-28T07:43:51.791Z,61.88
2023-02-28T07:44:51.775Z,61.88
2023-02-28T07:45:51.779Z,61.88
2023-02-28T07:46:51.864Z,61.88
2023-02-28T07:47:51.756Z,61.88
2023-02-28T07:48:51.835Z,73.12
2023-02-28T07:49:51.730Z,95.62
2023-02-28T07:50:51.718Z,101.25
2023-02-28T07:51:51.700Z,95.62
2023-02-28T07:52:51.690Z,95.62
2023-02-28T07:53:51.677Z,95.62
2023-02-28T07:54:51.668Z,95.62
2023-02-28T07:55:51.685Z,95.62
2023-02-28T07:56:51.646Z,95.62
2023-02-28T07:57:51.637Z,106.88
2023-02-28T07:58:51.634Z,112.50
2023-02-28T07:59:51.612Z,106.88
2023-02-28T08:00:51.700Z,123.75
2023-02-28T08:01:51.702Z,140.62
2023-02-28T08:02:51.587Z,163.12
2023-02-28T08:03:51.586Z,185.62
2023-02-28T08:04:51.618Z,202.50
2023-02-28T08:05:51.584Z,213.75
2023-02-28T08:06:51.538Z,213.75
2023-02-28T08:07:51.530Z,219.38
2023-02-28T08:08:51.517Z,219.38
2023-02-28T08:09:51.513Z,225.00
2023-02-28T08:10:51.522Z,225.00
2023-02-28T08:11:51.657Z,225.00
2023-02-28T08:12:51.622Z,225.00
2023-02-28T08:13:51.464Z,230.62
2023-02-28T08:14:51.449Z,230.62
2023-02-28T08:15:51.457Z,236.25
2023-02-28T08:16:51.425Z,236.25
2023-02-28T08:17:51.416Z,241.88
2023-02-28T08:18:51.407Z,241.88
2023-02-28T08:19:51.401Z,247.50
2023-02-28T08:20:51.402Z,247.50
2023-02-28T08:21:51.382Z,253.12
2023-02-28T08:22:51.377Z,253.12
2023-02-28T08:23:51.368Z,253.12
2023-02-28T08:24:51.351Z,258.75
2023-02-28T08:25:51.333Z,258.75
2023-02-28T08:26:51.313Z,258.75
2023-02-28T08:27:51.333Z,258.75
2023-02-28T08:28:51.325Z,264.38
2023-02-28T08:29:51.301Z,264.38
2023-02-28T08:30:51.296Z,264.38
2023-02-28T08:31:51.428Z,270.00
2023-02-28T08:32:51.258Z,270.00
2023-02-28T08:33:51.240Z,270.00
2023-02-28T08:34:51.233Z,270.00
2023-02-28T08:35:51.296Z,275.62
2023-02-28T08:36:51.357Z,275.62
2023-02-28T08:37:51.204Z,281.25
2023-02-28T08:38:51.206Z,281.25
2023-02-28T08:39:52.422Z,286.88
2023-02-28T08:40:51.172Z,286.88
2023-02-28T08:42:02.069Z,286.88
2023-02-28T08:42:52.170Z,292.50
2023-02-28T08:43:51.195Z,292.50
2023-02-28T08:44:51.114Z,303.75
2023-02-28T08:45:51.153Z,303.75
2023-02-28T08:46:51.130Z,303.75
2023-02-28T08:47:51.086Z,309.38
2023-02-28T08:48:51.079Z,309.38
2023-02-28T08:49:51.074Z,309.38
2023-02-28T08:51:05.990Z,315.00
2023-02-28T08:51:51.034Z,326.25
2023-02-28T08:52:51.026Z,326.25
2023-02-28T08:53:51.014Z,331.88
2023-02-28T08:54:51.004Z,337.50
2023-02-28T08:55:50.991Z,343.12
2023-02-28T08:56:50.975Z,348.75
2023-02-28T08:57:50.969Z,354.38
2023-02-28T08:58:50.960Z,360.00
2023-02-28T08:59:50.984Z,360.00
2023-02-28T09:00:50.957Z,354.38
2023-02-28T09:01:50.922Z,360.00
2023-02-28T09:02:50.912Z,365.62
2023-02-28T09:03:50.910Z,365.62
2023-02-28T09:04:50.892Z,365.62
2023-02-28T09:05:50.879Z,371.25
2023-02-28T09:06:50.871Z,371.25
2023-02-28T09:07:50.860Z,365.62
2023-02-28T09:08:50.846Z,360.00
2023-02-28T09:09:50.832Z,360.00
2023-02-28T09:10:50.823Z,360.00
2023-02-28T09:11:50.813Z,360.00
2023-02-28T09:12:50.802Z,360.00
2023-02-28T09:13:50.790Z,360.00
2023-02-28T09:14:50.778Z,354.38
2023-02-28T09:15:50.798Z,354.38
2023-02-28T09:16:50.845Z,354.38
2023-02-28T09:17:50.747Z,354.38
2023-02-28T09:18:50.733Z,354.38
2023-02-28T09:19:50.726Z,354.38
2023-02-28T09:20:50.713Z,348.75
2023-02-28T09:21:50.737Z,354.38
2023-02-28T09:22:50.692Z,354.38
2023-02-28T09:23:50.686Z,348.75
2023-02-28T09:24:50.670Z,354.38
2023-02-28T09:25:50.660Z,354.38
2023-02-28T09:26:56.734Z,348.75
2023-02-28T09:27:51.669Z,343.12
2023-02-28T09:28:50.628Z,343.12
2023-02-28T09:29:50.617Z,337.50
2023-02-28T09:30:50.711Z,343.12
2023-02-28T09:31:50.675Z,343.12
2023-02-28T09:32:51.295Z,343.12
2023-02-28T09:33:50.582Z,343.12
2023-02-28T09:34:50.565Z,348.75
2023-02-28T09:35:50.646Z,343.12
2023-02-28T09:36:51.227Z,337.50
2023-02-28T09:37:50.538Z,343.12
2023-02-28T09:38:50.541Z,343.12
2023-02-28T09:39:50.513Z,348.75
2023-02-28T09:40:50.500Z,354.38
2023-02-28T09:41:50.497Z,360.00
2023-02-28T09:42:50.514Z,371.25
2023-02-28T09:43:50.470Z,382.50
2023-02-28T09:44:50.474Z,382.50
2023-02-28T09:45:50.483Z,388.12
2023-02-28T09:46:50.434Z,405.00
2023-02-28T09:47:50.443Z,416.25
2023-02-28T09:48:50.421Z,438.75
2023-02-28T09:49:50.393Z,461.25
2023-02-28T09:50:50.381Z,472.50
2023-02-28T09:51:50.373Z,466.88
2023-02-28T09:52:50.359Z,438.75
2023-02-28T09:53:53.324Z,433.12
2023-02-28T09:54:51.363Z,444.38
2023-02-28T09:55:50.352Z,427.50
2023-02-28T09:56:50.501Z,421.88
2023-02-28T09:57:50.307Z,416.25
2023-02-28T09:58:50.301Z,416.25
2023-02-28T09:59:50.281Z,416.25
2023-02-28T10:00:50.274Z,410.62
2023-02-28T10:01:50.296Z,405.00
2023-02-28T10:02:50.252Z,405.00
2023-02-28T10:03:50.266Z,405.00
2023-02-28T10:04:50.247Z,405.00
2023-02-28T10:05:50.255Z,405.00
2023-02-28T10:06:50.211Z,405.00
2023-02-28T10:07:50.205Z,405.00
2023-02-28T10:08:50.214Z,405.00
2023-02-28T10:09:50.187Z,416.25
2023-02-28T10:10:50.178Z,421.88
2023-02-28T10:11:50.173Z,427.50
2023-02-28T10:12:50.153Z,421.88
2023-02-28T10:13:50.142Z,416.25
2023-02-28T10:14:50.126Z,416.25
2023-02-28T10:15:50.137Z,416.25
2023-02-28T10:16:50.855Z,421.88
2023-02-28T10:17:55.566Z,433.12
2023-02-28T10:18:51.109Z,438.75
2023-02-28T10:19:50.134Z,438.75
2023-02-28T10:20:50.104Z,438.75
2023-02-28T10:21:50.046Z,438.75
2023-02-28T10:22:50.058Z,444.38
2023-02-28T10:23:50.225Z,455.62
2023-02-28T10:24:50.230Z,455.62
2023-02-28T10:25:50.005Z,461.25
2023-02-28T10:26:49.998Z,461.25
2023-02-28T10:27:49.983Z,461.25
2023-02-28T10:28:49.964Z,461.25
2023-02-28T10:29:49.972Z,455.62
2023-02-28T10:30:50.008Z,466.88
2023-02-28T10:31:50.024Z,478.12
2023-02-28T10:32:50.005Z,472.50
2023-02-28T10:33:49.929Z,478.12
2023-02-28T10:34:49.904Z,483.75
2023-02-28T10:35:50.018Z,495.00
2023-02-28T10:36:49.884Z,489.38
2023-02-28T10:37:49.873Z,483.75
2023-02-28T10:38:49.888Z,489.38
2023-02-28T10:39:49.857Z,489.38
2023-02-28T10:40:49.837Z,500.62
2023-02-28T10:41:49.833Z,506.25
2023-02-28T10:42:49.838Z,506.25
2023-02-28T10:43:50.737Z,506.25
2023-02-28T10:44:49.817Z,511.88
2023-02-28T10:45:49.786Z,500.62
2023-02-28T10:46:49.938Z,500.62
2023-02-28T10:47:49.776Z,500.62
2023-02-28T10:48:49.753Z,506.25
2023-02-28T10:49:49.757Z,511.88
2023-02-28T10:50:49.733Z,523.12
2023-02-28T10:51:49.765Z,517.50
2023-02-28T10:52:49.807Z,511.88
2023-02-28T10:54:00.587Z,500.62
2023-02-28T10:54:50.845Z,495.00
2023-02-28T10:55:49.686Z,500.62
2023-02-28T10:56:49.667Z,489.38
2023-02-28T10:57:49.654Z,483.75
2023-02-28T10:58:49.649Z,489.38
2023-02-28T10:59:49.650Z,500.62
2023-02-28T11:00:49.632Z,534.38
2023-02-28T11:01:49.705Z,551.25
2023-02-28T11:02:49.613Z,528.75
2023-02-28T11:03:49.606Z,517.50
2023-02-28T11:04:49.982Z,523.12
2023-02-28T11:05:49.575Z,517.50
2023-02-28T11:06:49.577Z,523.12
2023-02-28T11:07:53.395Z,528.75
2023-02-28T11:08:49.587Z,528.75
2023-02-28T11:09:49.546Z,540.00
2023-02-28T11:10:49.521Z,551.25
2023-02-28T11:11:49.507Z,556.88
2023-02-28T11:12:52.816Z,579.38
2023-02-28T11:13:49.505Z,545.62
2023-02-28T11:14:49.464Z,534.38
2023-02-28T11:15:49.501Z,511.88
2023-02-28T11:16:49.455Z,343.12
2023-02-28T11:17:49.429Z,146.25
2023-02-28T11:18:49.463Z,101.25
2023-02-28T11:19:49.432Z,101.25
2023-02-28T11:20:49.417Z,95.62
2023-02-28T11:21:49.407Z,95.62
2023-02-28T11:22:49.414Z,95.62
2023-02-28T11:23:49.394Z,95.62
2023-02-28T11:24:49.383Z,95.62
2023-02-28T11:25:49.352Z,95.62
2023-02-28T11:26:49.347Z,95.62
2023-02-28T11:27:49.356Z,95.62
2023-02-28T11:28:49.364Z,90.00
2023-02-28T11:29:49.299Z,90.00
2023-02-28T11:30:49.346Z,90.00
2023-02-28T11:31:49.428Z,90.00
2023-02-28T11:32:49.330Z,90.00
2023-02-28T11:33:49.319Z,90.00
2023-02-28T11:34:49.247Z,90.00
2023-02-28T11:35:49.330Z,90.00
2023-02-28T11:36:49.257Z,90.00
2023-02-28T11:37:49.228Z,90.00
2023-02-28T11:38:49.220Z,90.00
2023-02-28T11:39:49.226Z,90.00
2023-02-28T11:40:49.186Z,90.00
2023-02-28T11:41:49.165Z,90.00
2023-02-28T11:42:49.182Z,90.00
2023-02-28T11:43:49.219Z,90.00
2023-02-28T11:44:49.307Z,84.38
2023-02-28T11:45:49.152Z,84.38
2023-02-28T11:46:50.914Z,84.38
2023-02-28T11:47:49.104Z,84.38
2023-02-28T11:48:49.128Z,84.38
2023-02-28T11:49:49.138Z,84.38
2023-02-28T11:50:49.074Z,84.38
2023-02-28T11:51:49.070Z,84.38
2023-02-28T11:52:49.109Z,84.38
2023-02-28T11:53:49.047Z,84.38
2023-02-28T11:54:49.055Z,84.38
2023-02-28T11:55:49.051Z,84.38
2023-02-28T11:56:49.014Z,84.38
2023-02-28T11:57:49.016Z,84.38
2023-02-28T11:58:48.999Z,84.38
2023-02-28T11:59:49.032Z,84.38
2023-02-28T12:00:49.042Z,84.38
2023-02-28T12:01:49.020Z,84.38
2023-02-28T12:02:49.082Z,84.38
2023-02-28T12:03:48.971Z,84.38
2023-02-28T12:04:48.985Z,84.38
2023-02-28T12:05:48.908Z,84.38
2023-02-28T12:06:48.982Z,84.38
2023-02-28T12:07:48.973Z,84.38
2023-02-28T12:08:49.008Z,84.38
2023-02-28T12:09:48.902Z,84.38
2023-02-28T12:10:48.885Z,84.38
2023-02-28T12:11:48.878Z,84.38
2023-02-28T12:12:48.890Z,84.38
2023-02-28T12:13:48.851Z,84.38
2023-02-28T12:14:48.892Z,84.38
2023-02-28T12:15:48.803Z,84.38
2023-02-28T12:16:48.796Z,84.38
2023-02-28T12:17:48.838Z,84.38
2023-02-28T12:18:48.791Z,84.38
2023-02-28T12:19:48.821Z,84.38
2023-02-28T12:20:48.780Z,84.38
2023-02-28T12:21:48.731Z,84.38
2023-02-28T12:22:48.828Z,84.38
2023-02-28T12:23:48.721Z,84.38
2023-02-28T12:24:48.782Z,84.38
2023-02-28T12:25:48.697Z,84.38
2023-02-28T12:26:48.688Z,78.75
2023-02-28T12:27:48.754Z,78.75
2023-02-28T12:28:48.674Z,78.75
2023-02-28T12:29:48.649Z,78.75
2023-02-28T12:30:48.635Z,78.75
2023-02-28T12:31:48.763Z,78.75
2023-02-28T12:32:48.733Z,78.75
2023-02-28T12:33:48.640Z,78.75
2023-02-28T12:34:48.677Z,78.75
2023-02-28T12:35:48.646Z,78.75
2023-02-28T12:36:48.576Z,78.75
2023-02-28T12:37:48.574Z,78.75
2023-02-28T12:38:48.574Z,78.75
2023-02-28T12:39:50.907Z,78.75
2023-02-28T12:40:48.553Z,78.75
2023-02-28T12:41:48.573Z,78.75
2023-02-28T12:42:48.503Z,78.75
2023-02-28T12:43:48.516Z,78.75
2023-02-28T12:44:48.503Z,78.75
2023-02-28T12:45:48.511Z,78.75
2023-02-28T12:46:48.565Z,78.75
2023-02-28T12:47:48.479Z,78.75
2023-02-28T12:48:48.448Z,78.75
2023-02-28T12:49:48.442Z,78.75
2023-02-28T12:50:48.434Z,78.75
2023-02-28T12:51:48.427Z,78.75
2023-02-28T12:52:48.413Z,78.75
2023-02-28T12:53:48.384Z,78.75
2023-02-28T12:54:48.370Z,78.75
2023-02-28T12:55:48.411Z,78.75
2023-02-28T12:56:48.363Z,78.75
2023-02-28T12:57:48.337Z,78.75
2023-02-28T12:58:48.354Z,78.75
2023-02-28T12:59:48.337Z,78.75